createdAt,value
2018-03-23T00:00:31.960Z,6.09
2018-03-23T00:02:59.588Z,5.61
2018-03-23T00:05:27.243Z,5.05
2018-03-23T00:07:54.867Z,5.02
2018-03-23T00:10:22.584Z,5.03
2018-03-23T00:12:50.199Z,5.05
2018-03-23T00:15:17.862Z,5.22
2018-03-23T00:17:45.471Z,5.30
2018-03-23T00:20:13.125Z,5.42
2018-03-23T00:22:40.765Z,5.33
2018-03-23T00:25:08.416Z,5.44
2018-03-23T00:27:36.024Z,5.45
2018-03-23T00:30:03.690Z,5.52
2018-03-23T00:32:31.320Z,5.54
2018-03-23T00:34:58.985Z,5.65
2018-03-23T00:37:26.588Z,5.61
2018-03-23T00:39:54.245Z,5.67
2018-03-23T00:42:21.860Z,5.61
2018-03-23T00:44:49.492Z,5.38
2018-03-23T00:47:17.140Z,5.32
2018-03-23T00:49:44.792Z,5.38
2018-03-23T00:52:12.452Z,5.57
2018-03-23T00:54:40.064Z,5.43
2018-03-23T00:57:07.728Z,5.44
2018-03-23T00:59:35.372Z,5.48
2018-03-23T01:02:03.024Z,5.60
2018-03-23T01:04:30.640Z,5.69
2018-03-23T01:06:58.291Z,5.59
2018-03-23T01:09:25.907Z,5.52
2018-03-23T01:11:53.572Z,5.58
2018-03-23T01:14:21.171Z,5.72
2018-03-23T01:16:48.824Z,5.77
2018-03-23T01:19:16.438Z,5.90
2018-03-23T01:21:44.122Z,6.02
2018-03-23T01:24:11.764Z,6.06
2018-03-23T01:26:39.417Z,6.05
2018-03-23T01:29:07.033Z,6.07
2018-03-23T01:31:34.728Z,6.02
2018-03-23T01:34:02.350Z,6.03
2018-03-23T01:36:30.041Z,6.09
2018-03-23T01:38:57.666Z,6.09
2018-03-23T01:41:25.325Z,6.11
2018-03-23T01:43:52.956Z,6.13
2018-03-23T01:46:20.604Z,6.13
2018-03-23T01:48:48.236Z,6.11
2018-03-23T01:51:15.906Z,6.15
2018-03-23T01:53:45.329Z,6.11
2018-03-23T01:56:12.982Z,6.08
2018-03-23T01:58:40.643Z,6.01
2018-03-23T02:01:08.364Z,6.16
2018-03-23T02:03:35.964Z,6.31
2018-03-23T02:06:03.613Z,6.44
2018-03-23T02:08:31.232Z,6.61
2018-03-23T02:10:58.883Z,6.59
2018-03-23T02:13:26.485Z,6.67
2018-03-23T02:15:54.149Z,6.67
2018-03-23T02:18:21.779Z,6.73
2018-03-23T02:20:49.432Z,6.79
2018-03-23T02:23:17.033Z,6.78
2018-03-23T02:25:44.718Z,6.74
2018-03-23T02:28:12.328Z,6.70
2018-03-23T02:30:40.076Z,6.66
2018-03-23T02:33:07.697Z,6.52
2018-03-23T02:35:35.365Z,6.52
2018-03-23T02:38:02.965Z,6.61
2018-03-23T02:40:30.637Z,6.63
2018-03-23T02:42:58.251Z,6.57
2018-03-23T02:45:25.918Z,6.61
2018-03-23T02:47:53.530Z,6.64
2018-03-23T02:50:21.219Z,6.58
2018-03-23T02:52:48.888Z,6.52
2018-03-23T02:55:16.516Z,6.48
2018-03-23T02:57:44.187Z,6.46
2018-03-23T03:00:11.837Z,6.52
2018-03-23T03:02:39.498Z,6.59
2018-03-23T03:05:07.116Z,6.64
2018-03-23T03:07:34.769Z,6.65
2018-03-23T03:10:02.380Z,6.58
2018-03-23T03:12:30.028Z,6.55
2018-03-23T03:14:57.650Z,6.53
2018-03-23T03:17:25.316Z,6.50
2018-03-23T03:19:52.916Z,6.56
2018-03-23T03:22:20.580Z,6.67
2018-03-23T03:24:48.217Z,6.68
2018-03-23T03:27:15.884Z,6.68
2018-03-23T03:29:43.529Z,6.57
2018-03-23T03:32:11.173Z,6.55
2018-03-23T03:34:38.788Z,6.59
2018-03-23T03:37:06.436Z,6.69
2018-03-23T03:39:34.052Z,6.85
2018-03-23T03:42:01.713Z,6.88
2018-03-23T03:44:29.341Z,6.49
2018-03-23T03:46:57.005Z,6.25
2018-03-23T03:49:24.624Z,6.14
2018-03-23T03:51:52.297Z,5.85
2018-03-23T03:54:19.918Z,5.86
2018-03-23T03:56:47.581Z,6.09
2018-03-23T03:59:15.224Z,6.24
2018-03-23T04:01:42.898Z,6.36
2018-03-23T04:04:10.516Z,6.37
2018-03-23T04:06:38.178Z,6.10
2018-03-23T04:09:05.814Z,6.21
2018-03-23T04:11:33.487Z,6.36
2018-03-23T04:14:01.213Z,6.47
2018-03-23T04:16:28.907Z,6.52
2018-03-23T04:18:56.516Z,6.53
2018-03-23T04:21:24.162Z,6.59
2018-03-23T04:23:51.772Z,6.54
2018-03-23T04:26:19.424Z,6.65
2018-03-23T04:28:47.034Z,6.62
2018-03-23T04:31:14.688Z,6.63
2018-03-23T04:33:42.316Z,6.67
2018-03-23T04:36:09.986Z,6.79
2018-03-23T04:38:37.600Z,6.78
2018-03-23T04:41:05.296Z,6.66
2018-03-23T04:43:32.938Z,6.68
2018-03-23T04:46:00.600Z,6.82
2018-03-23T04:48:28.228Z,6.64
2018-03-23T04:50:55.887Z,6.49
2018-03-23T04:53:23.505Z,6.60
2018-03-23T04:55:51.172Z,6.71
2018-03-23T04:58:18.788Z,6.72
2018-03-23T05:00:46.407Z,6.82
2018-03-23T05:03:14.072Z,6.87
2018-03-23T05:05:41.698Z,6.91
2018-03-23T05:08:09.388Z,6.91
2018-03-23T05:10:36.999Z,6.83
2018-03-23T05:13:04.678Z,6.72
2018-03-23T05:15:32.301Z,6.75
2018-03-23T05:17:59.950Z,6.71
2018-03-23T05:20:27.590Z,6.66
2018-03-23T05:22:55.252Z,6.76
2018-03-23T05:25:22.872Z,6.78
2018-03-23T05:27:50.528Z,6.59
2018-03-23T05:30:18.138Z,6.65
2018-03-23T05:32:45.805Z,6.49
2018-03-23T05:35:13.457Z,6.66
2018-03-23T05:37:41.124Z,6.79
2018-03-23T05:40:08.748Z,6.84
2018-03-23T05:42:36.403Z,6.67
2018-03-23T05:45:04.009Z,6.88
2018-03-23T05:47:31.657Z,7.00
2018-03-23T05:49:59.277Z,7.05
2018-03-23T05:52:26.931Z,7.11
2018-03-23T05:54:54.574Z,7.12
2018-03-23T05:57:22.228Z,7.17
2018-03-23T05:59:49.884Z,7.23
2018-03-23T06:02:17.584Z,7.12
2018-03-23T06:04:45.208Z,7.09
2018-03-23T06:07:12.859Z,7.05
2018-03-23T06:09:40.477Z,7.06
2018-03-23T06:12:08.156Z,6.96
2018-03-23T06:14:35.768Z,6.85
2018-03-23T06:17:03.428Z,6.84
2018-03-23T06:19:31.041Z,6.76
2018-03-23T06:21:58.685Z,6.98
2018-03-23T06:24:26.319Z,7.04
2018-03-23T06:26:53.997Z,7.02
2018-03-23T06:29:21.615Z,7.03
2018-03-23T06:31:49.261Z,7.14
2018-03-23T06:34:16.877Z,6.86
2018-03-23T06:36:44.584Z,6.59
2018-03-23T06:39:12.207Z,6.29
2018-03-23T06:41:39.876Z,6.07
2018-03-23T06:44:07.488Z,5.96
2018-03-23T06:46:35.140Z,6.11
2018-03-23T06:49:02.767Z,6.30
2018-03-23T06:51:30.417Z,6.18
2018-03-23T06:53:58.094Z,6.34
2018-03-23T06:56:25.819Z,6.73
2018-03-23T06:58:53.432Z,6.92
2018-03-23T07:01:21.088Z,7.37
2018-03-23T07:03:48.708Z,7.55
2018-03-23T07:06:16.365Z,7.67
2018-03-23T07:08:44.028Z,8.09
2018-03-23T07:11:11.657Z,8.39
2018-03-23T07:13:39.304Z,8.28
2018-03-23T07:16:06.929Z,8.63
2018-03-23T07:18:34.585Z,8.58
2018-03-23T07:21:02.227Z,8.81
2018-03-23T07:23:29.908Z,9.20
2018-03-23T07:25:57.557Z,9.63
2018-03-23T07:28:25.219Z,9.92
2018-03-23T07:30:52.849Z,10.21
2018-03-23T07:33:20.508Z,10.03
2018-03-23T07:35:48.129Z,9.73
2018-03-23T07:38:15.815Z,9.62
2018-03-23T07:40:43.451Z,9.27
2018-03-23T07:43:11.105Z,9.09
2018-03-23T07:45:38.739Z,9.33
2018-03-23T07:48:06.419Z,9.59
2018-03-23T07:50:34.049Z,9.57
2018-03-23T07:53:01.720Z,9.24
2018-03-23T07:55:29.346Z,9.20
2018-03-23T07:57:57.001Z,9.54
2018-03-23T08:00:24.659Z,9.96
2018-03-23T08:02:52.315Z,10.48
2018-03-23T08:05:19.932Z,10.67
2018-03-23T08:07:47.610Z,10.54
2018-03-23T08:10:15.255Z,10.00
2018-03-23T08:12:42.917Z,10.01
2018-03-23T08:15:10.610Z,10.34
2018-03-23T08:17:38.265Z,10.04
2018-03-23T08:20:05.880Z,9.54
2018-03-23T08:22:33.550Z,9.69
2018-03-23T08:25:01.196Z,10.39
2018-03-23T08:27:29.013Z,10.64
2018-03-23T08:29:56.661Z,10.73
2018-03-23T08:32:24.349Z,10.76
2018-03-23T08:34:51.999Z,10.08
2018-03-23T08:37:19.656Z,10.99
2018-03-23T08:39:47.350Z,11.09
2018-03-23T08:42:15.025Z,11.70
2018-03-23T08:44:42.705Z,12.53
2018-03-23T08:47:10.388Z,13.29
2018-03-23T08:49:38.004Z,13.88
2018-03-23T08:52:05.689Z,14.52
2018-03-23T08:54:33.312Z,14.07
2018-03-23T08:57:00.992Z,13.47
2018-03-23T08:59:28.641Z,14.22
2018-03-23T09:01:56.340Z,14.56
2018-03-23T09:04:23.979Z,14.81
2018-03-23T09:06:51.649Z,14.58
2018-03-23T09:09:19.276Z,14.05
2018-03-23T09:11:46.898Z,14.05
2018-03-23T09:14:14.566Z,13.83
2018-03-23T09:16:42.270Z,14.18
2018-03-23T09:19:09.920Z,13.61
2018-03-23T09:21:37.544Z,12.79
2018-03-23T09:24:05.208Z,12.89
2018-03-23T09:26:32.849Z,12.97
2018-03-23T09:29:01.060Z,13.38
2018-03-23T09:31:28.735Z,13.67
2018-03-23T09:33:56.408Z,13.76
2018-03-23T09:36:24.042Z,13.93
2018-03-23T09:38:51.725Z,13.33
2018-03-23T09:41:19.372Z,13.91
2018-03-23T09:43:47.044Z,13.06
2018-03-23T09:46:14.669Z,13.18
2018-03-23T09:48:42.378Z,14.07
2018-03-23T09:51:10.036Z,13.94
2018-03-23T09:53:37.713Z,14.32
2018-03-23T09:56:05.468Z,14.37
2018-03-23T09:58:33.338Z,13.61
2018-03-23T10:01:01.078Z,14.71
2018-03-23T10:03:28.879Z,15.35
2018-03-23T10:08:20.714Z,17.26
2018-03-23T10:10:48.502Z,16.01
2018-03-23T10:13:16.378Z,14.71
2018-03-23T10:15:44.063Z,13.88
2018-03-23T10:18:11.715Z,14.00
2018-03-23T10:20:39.346Z,13.74
2018-03-23T10:23:07.055Z,11.94
2018-03-23T10:25:34.677Z,11.27
2018-03-23T10:28:02.359Z,10.39
2018-03-23T10:30:30.043Z,10.45
2018-03-23T10:32:57.699Z,9.89
2018-03-23T10:35:25.402Z,10.09
2018-03-23T10:37:53.069Z,10.54
2018-03-23T10:40:21.170Z,10.44
2018-03-23T10:42:48.880Z,9.89
2018-03-23T10:45:16.646Z,9.37
2018-03-23T10:47:44.465Z,9.21
2018-03-23T10:50:12.116Z,9.49
2018-03-23T10:52:39.847Z,9.24
2018-03-23T10:55:07.470Z,9.16
2018-03-23T10:57:35.115Z,9.19
2018-03-23T11:00:02.821Z,9.46
2018-03-23T11:02:44.830Z,9.54
2018-03-23T11:05:12.472Z,9.93
2018-03-23T11:07:40.154Z,9.97
2018-03-23T11:10:07.861Z,10.40
2018-03-23T11:12:35.532Z,10.43
2018-03-23T11:15:03.196Z,10.63
2018-03-23T11:17:30.829Z,10.48
2018-03-23T11:19:58.480Z,9.86
2018-03-23T11:22:26.124Z,9.78
2018-03-23T11:24:53.789Z,9.49
2018-03-23T11:27:21.434Z,9.59
2018-03-23T11:29:49.075Z,9.72
2018-03-23T11:32:16.690Z,9.83
2018-03-23T11:34:44.402Z,9.73
2018-03-23T11:37:12.029Z,9.66
2018-03-23T11:39:39.706Z,9.32
2018-03-23T11:42:07.340Z,9.08
2018-03-23T11:44:35.001Z,9.12
2018-03-23T11:47:02.621Z,9.13
2018-03-23T11:49:30.280Z,9.32
2018-03-23T11:51:57.910Z,9.39
2018-03-23T11:54:25.590Z,9.27
2018-03-23T11:56:53.631Z,9.51
2018-03-23T11:59:21.293Z,9.45
2018-03-23T12:01:48.917Z,9.56
2018-03-23T12:04:16.569Z,9.85
2018-03-23T12:06:44.327Z,10.12
2018-03-23T12:09:12.000Z,10.32
2018-03-23T12:11:39.628Z,10.19
2018-03-23T12:14:07.292Z,10.42
2018-03-23T12:16:34.944Z,10.67
2018-03-23T12:19:02.621Z,10.80
2018-03-23T12:21:30.326Z,10.78
2018-03-23T12:23:58.002Z,10.72
2018-03-23T12:26:25.685Z,10.75
2018-03-23T12:28:53.353Z,10.64
2018-03-23T12:31:21.067Z,10.35
2018-03-23T12:33:48.719Z,9.93
2018-03-23T12:36:16.350Z,10.10
2018-03-23T12:38:44.068Z,9.80
2018-03-23T12:41:11.709Z,10.12
2018-03-23T12:43:39.426Z,10.36
2018-03-23T12:46:07.068Z,10.12
2018-03-23T12:48:34.728Z,9.85
2018-03-23T12:51:02.397Z,9.87
2018-03-23T12:53:30.061Z,9.97
2018-03-23T12:55:57.726Z,9.94
2018-03-23T12:58:25.380Z,9.75
2018-03-23T13:00:52.992Z,10.06
2018-03-23T13:03:20.648Z,10.53
2018-03-23T13:05:48.318Z,10.43
2018-03-23T13:08:15.985Z,10.87
2018-03-23T13:10:43.653Z,10.69
2018-03-23T13:13:11.278Z,10.34
2018-03-23T13:15:38.940Z,10.19
2018-03-23T13:18:06.561Z,10.16
2018-03-23T13:20:34.232Z,9.99
2018-03-23T13:23:01.867Z,10.06
2018-03-23T13:25:29.525Z,9.84
2018-03-23T13:27:57.312Z,9.78
2018-03-23T13:30:24.998Z,9.69
2018-03-23T13:32:52.620Z,9.61
2018-03-23T13:35:20.294Z,9.60
2018-03-23T13:37:48.040Z,9.91
2018-03-23T13:40:15.711Z,9.75
2018-03-23T13:42:43.587Z,9.83
2018-03-23T13:45:11.244Z,9.60
2018-03-23T13:47:38.895Z,9.71
2018-03-23T13:50:06.649Z,9.98
2018-03-23T13:52:34.307Z,9.84
2018-03-23T13:55:02.017Z,9.97
2018-03-23T13:57:29.640Z,9.99
2018-03-23T14:00:00.150Z,9.64
2018-03-23T14:02:27.766Z,9.56
2018-03-23T14:04:55.451Z,9.57
2018-03-23T14:07:23.101Z,9.27
2018-03-23T14:09:50.778Z,9.48
2018-03-23T14:12:18.403Z,9.22
2018-03-23T14:14:46.224Z,9.45
2018-03-23T14:17:13.861Z,9.56
2018-03-23T14:19:41.537Z,9.60
2018-03-23T14:22:09.155Z,9.62
2018-03-23T14:24:36.820Z,9.58
2018-03-23T14:27:04.416Z,9.39
2018-03-23T14:29:32.075Z,9.32
2018-03-23T14:31:59.700Z,9.25
2018-03-23T14:34:27.372Z,9.23
2018-03-23T14:36:54.997Z,9.31
2018-03-23T14:39:22.657Z,9.53
2018-03-23T14:41:50.302Z,9.80
2018-03-23T14:44:18.212Z,9.70
2018-03-23T14:46:45.836Z,9.57
2018-03-23T14:49:13.545Z,9.77
2018-03-23T14:51:41.168Z,9.68
2018-03-23T14:54:08.841Z,9.79
2018-03-23T14:56:36.467Z,9.44
2018-03-23T14:59:09.666Z,9.23
2018-03-23T15:01:37.265Z,9.04
2018-03-23T15:04:04.922Z,9.10
2018-03-23T15:06:32.582Z,9.06
2018-03-23T15:09:00.198Z,9.18
2018-03-23T15:11:27.869Z,9.22
2018-03-23T15:14:02.195Z,9.29
2018-03-23T15:16:29.854Z,9.45
2018-03-23T15:18:57.576Z,9.72
2018-03-23T15:21:25.244Z,9.63
2018-03-23T15:23:52.866Z,9.53
2018-03-23T15:26:20.538Z,9.51
2018-03-23T15:28:48.165Z,9.60
2018-03-23T15:31:15.836Z,10.02
2018-03-23T15:33:43.474Z,10.05
2018-03-23T15:36:11.136Z,10.16
2018-03-23T15:38:38.770Z,10.24
2018-03-23T15:41:06.440Z,10.40
2018-03-23T15:43:34.056Z,10.34
2018-03-23T15:46:01.746Z,10.32
2018-03-23T15:48:29.388Z,10.35
2018-03-23T15:50:57.036Z,10.33
2018-03-23T15:53:24.666Z,10.39
2018-03-23T15:55:52.340Z,10.20
2018-03-23T15:58:19.956Z,10.34
2018-03-23T16:00:47.635Z,10.25
2018-03-23T16:03:15.281Z,10.14
2018-03-23T16:05:42.977Z,9.94
2018-03-23T16:08:10.612Z,10.10
2018-03-23T16:10:38.264Z,10.12
2018-03-23T16:13:05.926Z,10.06
2018-03-23T16:15:33.574Z,9.91
2018-03-23T16:18:01.178Z,9.58
2018-03-23T16:20:28.824Z,9.58
2018-03-23T16:22:56.438Z,9.73
2018-03-23T16:25:24.096Z,9.72
2018-03-23T16:27:51.754Z,9.88
2018-03-23T16:30:19.418Z,9.81
2018-03-23T16:32:47.068Z,9.69
2018-03-23T16:35:14.756Z,9.79
2018-03-23T16:37:42.364Z,9.80
2018-03-23T16:40:10.021Z,9.50
2018-03-23T16:42:37.726Z,9.74
2018-03-23T16:45:05.400Z,9.39
2018-03-23T16:47:33.059Z,9.20
2018-03-23T16:50:00.698Z,9.22
2018-03-23T16:52:28.366Z,9.49
2018-03-23T16:54:56.023Z,9.43
2018-03-23T16:57:23.648Z,9.50
2018-03-23T16:59:51.327Z,9.44
2018-03-23T17:02:18.953Z,9.28
2018-03-23T17:04:46.688Z,9.30
2018-03-23T17:07:14.301Z,9.29
2018-03-23T17:09:41.954Z,9.31
2018-03-23T17:12:09.645Z,9.18
2018-03-23T17:14:37.259Z,8.93
2018-03-23T17:17:05.001Z,8.94
2018-03-23T17:19:32.652Z,8.88
2018-03-23T17:22:00.312Z,8.86
2018-03-23T17:24:27.921Z,8.67
2018-03-23T17:26:55.603Z,8.64
2018-03-23T17:29:23.260Z,8.62
2018-03-23T17:31:50.924Z,8.51
2018-03-23T17:34:18.618Z,8.61
2018-03-23T17:36:46.287Z,8.53
2018-03-23T17:39:13.906Z,8.55
2018-03-23T17:41:41.565Z,8.56
2018-03-23T17:44:09.197Z,8.50
2018-03-23T17:46:36.849Z,8.63
2018-03-23T17:49:04.528Z,8.34
2018-03-23T17:51:32.179Z,8.17
2018-03-23T17:53:59.815Z,8.19
2018-03-23T17:56:27.470Z,8.15
2018-03-23T17:58:55.107Z,8.23
2018-03-23T18:01:22.821Z,8.40
2018-03-23T18:03:50.461Z,8.34
2018-03-23T18:06:18.208Z,8.08
2018-03-23T18:08:45.805Z,8.29
2018-03-23T18:11:13.469Z,8.28
2018-03-23T18:13:41.105Z,8.31
2018-03-23T18:16:08.800Z,8.17
2018-03-23T18:18:36.418Z,8.15
2018-03-23T18:21:04.105Z,8.20
2018-03-23T18:23:31.756Z,8.32
2018-03-23T18:25:59.426Z,8.33
2018-03-23T18:28:27.061Z,8.34
2018-03-23T18:30:54.797Z,8.19
2018-03-23T18:33:22.483Z,8.20
2018-03-23T18:35:50.178Z,8.13
2018-03-23T18:38:17.815Z,8.14
2018-03-23T18:40:45.498Z,8.05
2018-03-23T18:43:13.109Z,8.07
2018-03-23T18:45:40.828Z,8.18
2018-03-23T18:48:08.483Z,8.08
2018-03-23T18:50:36.153Z,8.19
2018-03-23T18:53:03.806Z,8.16
2018-03-23T18:55:31.462Z,8.23
2018-03-23T18:57:59.109Z,8.29
2018-03-23T19:00:26.760Z,8.07
2018-03-23T19:02:54.380Z,8.09
2018-03-23T19:05:22.039Z,8.00
2018-03-23T19:07:49.679Z,8.01
2018-03-23T19:10:17.336Z,7.94
2018-03-23T19:12:44.957Z,7.86
2018-03-23T19:15:12.676Z,7.79
2018-03-23T19:17:40.340Z,7.66
2018-03-23T19:20:07.997Z,7.71
2018-03-23T19:22:35.670Z,7.69
2018-03-23T19:25:03.459Z,7.49
2018-03-23T19:27:31.252Z,7.51
2018-03-23T19:29:58.887Z,7.51
2018-03-23T19:32:26.562Z,7.57
2018-03-23T19:34:54.197Z,7.58
2018-03-23T19:37:21.888Z,7.52
2018-03-23T19:39:49.508Z,7.58
2018-03-23T19:42:17.156Z,7.52
2018-03-23T19:44:44.959Z,7.57
2018-03-23T19:47:12.624Z,7.49
2018-03-23T19:49:40.240Z,7.49
2018-03-23T19:52:07.917Z,7.32
2018-03-23T19:54:35.538Z,7.43
2018-03-23T19:57:03.201Z,7.43
2018-03-23T19:59:30.826Z,7.48
2018-03-23T20:01:58.488Z,7.46
2018-03-23T20:04:26.137Z,7.40
2018-03-23T20:06:53.832Z,7.53
2018-03-23T20:09:21.436Z,7.48
2018-03-23T20:11:49.194Z,7.37
2018-03-23T20:14:16.798Z,7.19
2018-03-23T20:16:44.476Z,7.10
2018-03-23T20:19:12.108Z,6.95
2018-03-23T20:21:39.772Z,6.78
2018-03-23T20:24:12.998Z,6.48
2018-03-23T20:26:40.666Z,6.46
2018-03-23T20:29:08.290Z,6.32
2018-03-23T20:31:41.698Z,6.36
2018-03-23T20:34:09.331Z,6.43
2018-03-23T20:36:36.980Z,6.38
2018-03-23T20:39:04.717Z,6.45
2018-03-23T20:41:32.384Z,6.71
2018-03-23T20:44:00.051Z,6.89
2018-03-23T20:46:27.717Z,6.92
2018-03-23T20:48:55.421Z,6.97
2018-03-23T20:51:23.087Z,6.79
2018-03-23T20:53:50.714Z,6.09
2018-03-23T20:56:18.465Z,5.81
2018-03-23T20:58:46.126Z,5.89
2018-03-23T21:01:13.808Z,6.14
2018-03-23T21:03:41.469Z,6.08
2018-03-23T21:06:09.146Z,6.19
2018-03-23T21:08:36.853Z,6.37
2018-03-23T21:11:04.570Z,6.42
2018-03-23T21:13:32.208Z,6.35
2018-03-23T21:15:59.868Z,6.37
2018-03-23T21:18:27.529Z,6.35
2018-03-23T21:20:55.205Z,6.24
2018-03-23T21:23:22.832Z,6.38
2018-03-23T21:25:50.512Z,6.27
2018-03-23T21:28:18.121Z,6.35
2018-03-23T21:30:45.732Z,6.34
2018-03-23T21:33:13.428Z,6.52
2018-03-23T21:35:41.037Z,6.58
2018-03-23T21:38:08.707Z,6.59
2018-03-23T21:40:36.333Z,6.26
2018-03-23T21:43:04.012Z,6.44
2018-03-23T21:45:31.635Z,6.48
2018-03-23T21:47:59.306Z,6.33
2018-03-23T21:50:26.917Z,6.45
2018-03-23T21:52:54.579Z,6.48
2018-03-23T21:55:22.239Z,6.63
2018-03-23T21:57:49.909Z,6.55
2018-03-23T22:00:17.520Z,6.46
2018-03-23T22:02:45.168Z,6.39
2018-03-23T22:05:12.812Z,6.42
2018-03-23T22:07:40.467Z,6.51
2018-03-23T22:10:08.133Z,6.35
2018-03-23T22:12:35.812Z,6.33
2018-03-23T22:15:03.452Z,6.31
2018-03-23T22:17:31.121Z,6.25
2018-03-23T22:19:58.733Z,6.45
2018-03-23T22:22:26.389Z,6.49
2018-03-23T22:24:54.140Z,6.17
2018-03-23T22:27:21.804Z,6.25
2018-03-23T22:29:49.568Z,6.18
2018-03-23T22:32:17.332Z,6.02
2018-03-23T22:34:45.200Z,5.72
2018-03-23T22:37:12.979Z,5.59
2018-03-23T22:39:40.633Z,5.56
2018-03-23T22:42:08.288Z,5.69
2018-03-23T22:44:35.967Z,5.80
2018-03-23T22:47:03.645Z,5.98
2018-03-23T22:49:31.309Z,6.12
2018-03-23T22:51:59.023Z,5.90
2018-03-23T22:54:26.681Z,5.76
2018-03-23T22:56:54.336Z,5.66
2018-03-23T22:59:21.957Z,5.71
2018-03-23T23:01:49.617Z,5.84
2018-03-23T23:04:17.230Z,5.82
2018-03-23T23:06:44.876Z,5.82
2018-03-23T23:09:12.995Z,5.89
2018-03-23T23:11:40.653Z,5.95
2018-03-23T23:14:08.276Z,6.00
2018-03-23T23:16:35.945Z,5.75
2018-03-23T23:19:03.556Z,5.67
2018-03-23T23:21:31.233Z,5.16
2018-03-23T23:23:58.858Z,4.76
2018-03-23T23:26:26.531Z,4.70
2018-03-23T23:28:54.264Z,5.20
2018-03-23T23:31:21.919Z,5.00
2018-03-23T23:33:49.532Z,4.80
2018-03-23T23:36:17.140Z,5.14
2018-03-23T23:38:44.799Z,5.44
2018-03-23T23:41:12.428Z,5.44
2018-03-23T23:43:40.083Z,5.55
2018-03-23T23:46:07.693Z,5.48
2018-03-23T23:48:35.351Z,5.34
2018-03-23T23:51:02.965Z,5.13
2018-03-23T23:53:30.611Z,5.21
2018-03-23T23:55:58.245Z,5.37
2018-03-23T23:58:25.894Z,5.03
